sensor_id;sensor_type;location;lat;lon;timestamp;temperature;humidity
25640;DHT22;13497;48.322;16.204;2024-01-06T00:01:29;3.90;99.90
25640;DHT22;13497;48.322;16.204;2024-01-06T00:03:55;3.90;99.90
25640;DHT22;13497;48.322;16.204;2024-01-06T00:06:21;3.80;99.90
25640;DHT22;13497;48.322;16.204;2024-01-06T00:08:47;3.80;99.90
25640;DHT22;13497;48.322;16.204;2024-01-06T00:11:22;3.90;99.90
25640;DHT22;13497;48.322;16.204;2024-01-06T00:13:48;3.90;99.90
25640;DHT22;13497;48.322;16.204;2024-01-06T00:16:17;3.90;99.90
25640;DHT22;13497;48.322;16.204;2024-01-06T00:18:43;3.90;99.90
25640;DHT22;13497;48.322;16.204;2024-01-06T00:21:09;3.90;99.90
25640;DHT22;13497;48.322;16.204;2024-01-06T00:23:34;4.00;99.90
25640;DHT22;13497;48.322;16.204;2024-01-06T00:26:00;3.90;99.90
25640;DHT22;13497;48.322;16.204;2024-01-06T00:28:26;3.90;99.90
25640;DHT22;13497;48.322;16.204;2024-01-06T00:30:52;3.90;99.90
25640;DHT22;13497;48.322;16.204;2024-01-06T00:33:17;3.90;99.90
25640;DHT22;13497;48.322;16.204;2024-01-06T00:35:43;4.00;99.90
25640;DHT22;13497;48.322;16.204;2024-01-06T00:38:08;4.00;99.90
25640;DHT22;13497;48.322;16.204;2024-01-06T00:40:34;4.10;99.90
25640;DHT22;13497;48.322;16.204;2024-01-06T00:43:00;4.10;99.90
25640;DHT22;13497;48.322;16.204;2024-01-06T00:45:26;4.20;99.90
25640;DHT22;13497;48.322;16.204;2024-01-06T00:47:52;4.20;99.90
25640;DHT22;13497;48.322;16.204;2024-01-06T00:50:20;4.20;99.90
25640;DHT22;13497;48.322;16.204;2024-01-06T00:52:46;4.20;99.90
25640;DHT22;13497;48.322;16.204;2024-01-06T00:55:12;4.20;99.90
25640;DHT22;13497;48.322;16.204;2024-01-06T00:57:37;4.10;99.90
25640;DHT22;13497;48.322;16.204;2024-01-06T01:00:05;4.10;99.90
25640;DHT22;13497;48.322;16.204;2024-01-06T01:02:31;4.10;99.90
25640;DHT22;13497;48.322;16.204;2024-01-06T01:04:57;4.10;99.90
25640;DHT22;13497;48.322;16.204;2024-01-06T01:07:24;4.20;99.90
25640;DHT22;13497;48.322;16.204;2024-01-06T01:09:50;4.20;99.90
25640;DHT22;13497;48.322;16.204;2024-01-06T01:12:15;4.20;99.90
25640;DHT22;13497;48.322;16.204;2024-01-06T01:14:41;4.20;99.90
25640;DHT22;13497;48.322;16.204;2024-01-06T01:17:07;4.20;99.90
25640;DHT22;13497;48.322;16.204;2024-01-06T01:19:32;4.20;99.90
25640;DHT22;13497;48.322;16.204;2024-01-06T01:22:01;4.00;99.90
25640;DHT22;13497;48.322;16.204;2024-01-06T01:24:27;4.00;99.90
25640;DHT22;13497;48.322;16.204;2024-01-06T01:26:52;4.20;99.90
25640;DHT22;13497;48.322;16.204;2024-01-06T01:29:18;4.20;99.90
25640;DHT22;13497;48.322;16.204;2024-01-06T01:31:46;4.10;99.90
25640;DHT22;13497;48.322;16.204;2024-01-06T01:34:12;4.00;99.90
25640;DHT22;13497;48.322;16.204;2024-01-06T01:36:38;4.10;99.90
25640;DHT22;13497;48.322;16.204;2024-01-06T01:39:04;4.10;99.90
25640;DHT22;13497;48.322;16.204;2024-01-06T01:41:29;4.10;99.90
25640;DHT22;13497;48.322;16.204;2024-01-06T01:43:55;4.10;99.90
25640;DHT22;13497;48.322;16.204;2024-01-06T01:46:30;4.00;99.90
25640;DHT22;13497;48.322;16.204;2024-01-06T01:48:57;4.00;99.90
25640;DHT22;13497;48.322;16.204;2024-01-06T01:51:28;4.00;99.90
25640;DHT22;13497;48.322;16.204;2024-01-06T01:53:55;4.00;99.90
25640;DHT22;13497;48.322;16.204;2024-01-06T01:56:21;4.00;99.90
25640;DHT22;13497;48.322;16.204;2024-01-06T01:58:47;4.00;99.90
25640;DHT22;13497;48.322;16.204;2024-01-06T02:01:14;4.00;99.90
25640;DHT22;13497;48.322;16.204;2024-01-06T02:03:43;4.00;99.90
25640;DHT22;13497;48.322;16.204;2024-01-06T02:06:09;4.00;99.90
25640;DHT22;13497;48.322;16.204;2024-01-06T02:08:35;4.10;99.90
25640;DHT22;13497;48.322;16.204;2024-01-06T02:11:01;4.10;99.90
25640;DHT22;13497;48.322;16.204;2024-01-06T02:13:36;4.10;99.90
25640;DHT22;13497;48.322;16.204;2024-01-06T02:16:03;4.10;99.90
25640;DHT22;13497;48.322;16.204;2024-01-06T02:18:30;4.10;99.90
25640;DHT22;13497;48.322;16.204;2024-01-06T02:21:01;4.10;99.90
25640;DHT22;13497;48.322;16.204;2024-01-06T02:23:28;4.10;99.90
25640;DHT22;13497;48.322;16.204;2024-01-06T02:25:54;4.20;99.90
25640;DHT22;13497;48.322;16.204;2024-01-06T02:28:20;4.20;99.90
25640;DHT22;13497;48.322;16.204;2024-01-06T02:30:45;4.20;99.90
25640;DHT22;13497;48.322;16.204;2024-01-06T02:33:11;4.20;99.90
25640;DHT22;13497;48.322;16.204;2024-01-06T02:35:37;4.30;99.90
25640;DHT22;13497;48.322;16.204;2024-01-06T02:38:03;4.30;99.90
25640;DHT22;13497;48.322;16.204;2024-01-06T02:40:29;4.30;99.90
25640;DHT22;13497;48.322;16.204;2024-01-06T02:42:54;4.30;99.90
25640;DHT22;13497;48.322;16.204;2024-01-06T02:45:20;4.30;99.90
25640;DHT22;13497;48.322;16.204;2024-01-06T02:47:46;4.10;99.90
25640;DHT22;13497;48.322;16.204;2024-01-06T02:50:12;4.10;99.90
25640;DHT22;13497;48.322;16.204;2024-01-06T02:52:37;4.30;99.90
25640;DHT22;13497;48.322;16.204;2024-01-06T02:55:03;4.10;99.90
25640;DHT22;13497;48.322;16.204;2024-01-06T02:57:30;4.20;99.90
25640;DHT22;13497;48.322;16.204;2024-01-06T02:59:55;4.10;99.90
25640;DHT22;13497;48.322;16.204;2024-01-06T03:02:21;4.20;99.90
25640;DHT22;13497;48.322;16.204;2024-01-06T03:04:47;4.00;99.90
25640;DHT22;13497;48.322;16.204;2024-01-06T03:07:13;4.00;99.90
25640;DHT22;13497;48.322;16.204;2024-01-06T03:09:38;3.90;99.90
25640;DHT22;13497;48.322;16.204;2024-01-06T03:12:07;4.00;99.90
25640;DHT22;13497;48.322;16.204;2024-01-06T03:14:37;4.00;99.90
25640;DHT22;13497;48.322;16.204;2024-01-06T03:17:03;4.00;99.90
25640;DHT22;13497;48.322;16.204;2024-01-06T03:19:32;4.00;99.90
25640;DHT22;13497;48.322;16.204;2024-01-06T03:21:58;4.10;99.90
25640;DHT22;13497;48.322;16.204;2024-01-06T03:24:26;4.20;99.90
25640;DHT22;13497;48.322;16.204;2024-01-06T03:26:52;4.10;99.90
25640;DHT22;13497;48.322;16.204;2024-01-06T03:29:17;4.10;99.90
25640;DHT22;13497;48.322;16.204;2024-01-06T03:31:44;4.10;99.90
25640;DHT22;13497;48.322;16.204;2024-01-06T03:34:10;4.10;99.90
25640;DHT22;13497;48.322;16.204;2024-01-06T03:36:39;4.10;99.90
25640;DHT22;13497;48.322;16.204;2024-01-06T03:39:05;4.10;99.90
25640;DHT22;13497;48.322;16.204;2024-01-06T03:41:31;4.10;99.90
25640;DHT22;13497;48.322;16.204;2024-01-06T03:43:56;4.10;99.90
25640;DHT22;13497;48.322;16.204;2024-01-06T03:46:22;4.20;99.90
25640;DHT22;13497;48.322;16.204;2024-01-06T03:48:48;4.20;99.90
25640;DHT22;13497;48.322;16.204;2024-01-06T03:51:14;4.30;99.90
25640;DHT22;13497;48.322;16.204;2024-01-06T03:53:40;4.20;99.90
25640;DHT22;13497;48.322;16.204;2024-01-06T03:56:06;4.10;99.90
25640;DHT22;13497;48.322;16.204;2024-01-06T03:58:32;4.10;99.90
25640;DHT22;13497;48.322;16.204;2024-01-06T04:00:58;4.00;99.90
25640;DHT22;13497;48.322;16.204;2024-01-06T04:03:23;4.00;99.90
25640;DHT22;13497;48.322;16.204;2024-01-06T04:05:49;4.10;99.90
25640;DHT22;13497;48.322;16.204;2024-01-06T04:08:15;4.10;99.90
25640;DHT22;13497;48.322;16.204;2024-01-06T04:10:40;4.10;99.90
25640;DHT22;13497;48.322;16.204;2024-01-06T04:13:07;4.20;99.90
25640;DHT22;13497;48.322;16.204;2024-01-06T04:15:33;4.20;99.90
25640;DHT22;13497;48.322;16.204;2024-01-06T04:18:02;4.20;99.90
25640;DHT22;13497;48.322;16.204;2024-01-06T04:20:29;4.20;99.90
25640;DHT22;13497;48.322;16.204;2024-01-06T04:22:54;4.10;99.90
25640;DHT22;13497;48.322;16.204;2024-01-06T04:25:20;4.10;99.90
25640;DHT22;13497;48.322;16.204;2024-01-06T04:27:46;4.10;99.90
25640;DHT22;13497;48.322;16.204;2024-01-06T04:30:14;4.20;99.90
25640;DHT22;13497;48.322;16.204;2024-01-06T04:32:40;4.10;99.90
25640;DHT22;13497;48.322;16.204;2024-01-06T04:35:06;4.20;99.90
25640;DHT22;13497;48.322;16.204;2024-01-06T04:37:32;4.30;99.90
25640;DHT22;13497;48.322;16.204;2024-01-06T04:39:58;4.20;99.90
25640;DHT22;13497;48.322;16.204;2024-01-06T04:42:24;4.20;99.90
25640;DHT22;13497;48.322;16.204;2024-01-06T04:44:50;4.20;99.90
25640;DHT22;13497;48.322;16.204;2024-01-06T04:47:16;4.20;99.90
25640;DHT22;13497;48.322;16.204;2024-01-06T04:49:43;4.40;99.90
25640;DHT22;13497;48.322;16.204;2024-01-06T04:52:09;4.20;99.90
25640;DHT22;13497;48.322;16.204;2024-01-06T04:54:35;4.30;99.90
25640;DHT22;13497;48.322;16.204;2024-01-06T04:57:01;4.30;99.90
25640;DHT22;13497;48.322;16.204;2024-01-06T04:59:26;4.30;99.90
25640;DHT22;13497;48.322;16.204;2024-01-06T05:01:53;4.20;99.90
25640;DHT22;13497;48.322;16.204;2024-01-06T05:04:19;4.30;99.90
25640;DHT22;13497;48.322;16.204;2024-01-06T05:06:45;4.30;99.90
25640;DHT22;13497;48.322;16.204;2024-01-06T05:09:11;4.20;99.90
25640;DHT22;13497;48.322;16.204;2024-01-06T05:11:36;4.30;99.90
25640;DHT22;13497;48.322;16.204;2024-01-06T05:14:02;4.30;99.90
25640;DHT22;13497;48.322;16.204;2024-01-06T05:16:28;4.40;99.90
25640;DHT22;13497;48.322;16.204;2024-01-06T05:18:54;4.40;99.90
25640;DHT22;13497;48.322;16.204;2024-01-06T05:21:20;4.30;99.90
25640;DHT22;13497;48.322;16.204;2024-01-06T05:23:46;4.30;99.90
25640;DHT22;13497;48.322;16.204;2024-01-06T05:26:11;4.40;99.90
25640;DHT22;13497;48.322;16.204;2024-01-06T05:28:39;4.40;99.90
25640;DHT22;13497;48.322;16.204;2024-01-06T05:31:05;4.40;99.90
25640;DHT22;13497;48.322;16.204;2024-01-06T05:33:30;4.40;99.90
25640;DHT22;13497;48.322;16.204;2024-01-06T05:35:56;4.40;99.90
25640;DHT22;13497;48.322;16.204;2024-01-06T05:38:22;4.40;99.90
25640;DHT22;13497;48.322;16.204;2024-01-06T05:40:47;4.50;99.90
25640;DHT22;13497;48.322;16.204;2024-01-06T05:43:13;4.50;99.90
25640;DHT22;13497;48.322;16.204;2024-01-06T05:45:39;4.40;99.90
25640;DHT22;13497;48.322;16.204;2024-01-06T05:48:10;4.40;99.90
25640;DHT22;13497;48.322;16.204;2024-01-06T05:50:40;4.50;99.90
25640;DHT22;13497;48.322;16.204;2024-01-06T05:53:06;4.50;99.90
25640;DHT22;13497;48.322;16.204;2024-01-06T05:55:32;4.50;99.90
25640;DHT22;13497;48.322;16.204;2024-01-06T05:57:58;4.50;99.90
25640;DHT22;13497;48.322;16.204;2024-01-06T06:00:23;4.50;99.90
25640;DHT22;13497;48.322;16.204;2024-01-06T06:02:49;4.50;99.90
25640;DHT22;13497;48.322;16.204;2024-01-06T06:05:15;4.50;99.90
25640;DHT22;13497;48.322;16.204;2024-01-06T06:07:40;4.50;99.90
25640;DHT22;13497;48.322;16.204;2024-01-06T06:10:08;4.60;99.90
25640;DHT22;13497;48.322;16.204;2024-01-06T06:12:34;4.70;99.90
25640;DHT22;13497;48.322;16.204;2024-01-06T06:15:00;4.70;99.90
25640;DHT22;13497;48.322;16.204;2024-01-06T06:17:26;4.70;99.90
25640;DHT22;13497;48.322;16.204;2024-01-06T06:19:52;4.60;99.90
25640;DHT22;13497;48.322;16.204;2024-01-06T06:22:17;4.60;99.90
25640;DHT22;13497;48.322;16.204;2024-01-06T06:24:46;4.60;99.90
25640;DHT22;13497;48.322;16.204;2024-01-06T06:27:12;4.60;99.90
25640;DHT22;13497;48.322;16.204;2024-01-06T06:29:37;4.60;99.90
25640;DHT22;13497;48.322;16.204;2024-01-06T06:32:03;4.60;99.90
25640;DHT22;13497;48.322;16.204;2024-01-06T06:34:29;4.70;99.90
25640;DHT22;13497;48.322;16.204;2024-01-06T06:36:54;4.70;99.90
25640;DHT22;13497;48.322;16.204;2024-01-06T06:39:20;4.60;99.90
25640;DHT22;13497;48.322;16.204;2024-01-06T06:41:46;4.60;99.90
25640;DHT22;13497;48.322;16.204;2024-01-06T06:44:11;4.50;99.90
25640;DHT22;13497;48.322;16.204;2024-01-06T06:46:37;4.50;99.90
25640;DHT22;13497;48.322;16.204;2024-01-06T06:49:03;4.50;99.90
25640;DHT22;13497;48.322;16.204;2024-01-06T06:51:28;4.60;99.90
25640;DHT22;13497;48.322;16.204;2024-01-06T06:53:55;4.70;99.90
25640;DHT22;13497;48.322;16.204;2024-01-06T06:56:22;4.70;99.90
25640;DHT22;13497;48.322;16.204;2024-01-06T06:58:47;4.70;99.90
25640;DHT22;13497;48.322;16.204;2024-01-06T07:01:15;4.70;99.90
25640;DHT22;13497;48.322;16.204;2024-01-06T07:03:41;4.70;99.90
25640;DHT22;13497;48.322;16.204;2024-01-06T07:06:07;4.60;99.90
25640;DHT22;13497;48.322;16.204;2024-01-06T07:08:33;4.60;99.90
25640;DHT22;13497;48.322;16.204;2024-01-06T07:10:58;4.60;99.90
25640;DHT22;13497;48.322;16.204;2024-01-06T07:13:24;4.60;99.90
25640;DHT22;13497;48.322;16.204;2024-01-06T07:15:51;4.70;99.90
25640;DHT22;13497;48.322;16.204;2024-01-06T07:18:17;4.60;99.90
25640;DHT22;13497;48.322;16.204;2024-01-06T07:20:44;4.70;99.90
25640;DHT22;13497;48.322;16.204;2024-01-06T07:23:10;4.70;99.90
25640;DHT22;13497;48.322;16.204;2024-01-06T07:25:36;4.60;99.90
25640;DHT22;13497;48.322;16.204;2024-01-06T07:28:02;4.60;99.90
25640;DHT22;13497;48.322;16.204;2024-01-06T07:30:27;4.70;99.90
25640;DHT22;13497;48.322;16.204;2024-01-06T07:32:53;4.70;99.90
25640;DHT22;13497;48.322;16.204;2024-01-06T07:35:19;4.60;99.90
25640;DHT22;13497;48.322;16.204;2024-01-06T07:37:44;4.60;99.90
25640;DHT22;13497;48.322;16.204;2024-01-06T07:40:11;4.60;99.90
25640;DHT22;13497;48.322;16.204;2024-01-06T07:42:42;4.60;99.90
25640;DHT22;13497;48.322;16.204;2024-01-06T07:45:08;4.60;99.90
25640;DHT22;13497;48.322;16.204;2024-01-06T07:47:33;4.60;99.90
25640;DHT22;13497;48.322;16.204;2024-01-06T07:49:59;4.70;99.90
25640;DHT22;13497;48.322;16.204;2024-01-06T07:52:25;4.60;99.90
25640;DHT22;13497;48.322;16.204;2024-01-06T07:54:51;4.50;99.90
25640;DHT22;13497;48.322;16.204;2024-01-06T07:57:17;4.60;99.90
25640;DHT22;13497;48.322;16.204;2024-01-06T07:59:42;4.60;99.90
25640;DHT22;13497;48.322;16.204;2024-01-06T08:02:08;4.60;99.90
25640;DHT22;13497;48.322;16.204;2024-01-06T08:04:34;4.60;99.90
25640;DHT22;13497;48.322;16.204;2024-01-06T08:07:00;4.60;99.90
25640;DHT22;13497;48.322;16.204;2024-01-06T08:09:25;4.60;99.90
25640;DHT22;13497;48.322;16.204;2024-01-06T08:11:51;4.50;99.90
25640;DHT22;13497;48.322;16.204;2024-01-06T08:14:17;4.50;99.90
25640;DHT22;13497;48.322;16.204;2024-01-06T08:16:43;4.50;99.90
25640;DHT22;13497;48.322;16.204;2024-01-06T08:19:09;4.60;99.90
25640;DHT22;13497;48.322;16.204;2024-01-06T08:21:35;4.60;99.90
25640;DHT22;13497;48.322;16.204;2024-01-06T08:24:01;4.70;99.90
25640;DHT22;13497;48.322;16.204;2024-01-06T08:26:26;4.70;99.90
25640;DHT22;13497;48.322;16.204;2024-01-06T08:28:52;4.70;99.90
25640;DHT22;13497;48.322;16.204;2024-01-06T08:31:18;4.70;99.90
25640;DHT22;13497;48.322;16.204;2024-01-06T08:33:43;4.70;99.90
25640;DHT22;13497;48.322;16.204;2024-01-06T08:36:09;4.70;99.90
25640;DHT22;13497;48.322;16.204;2024-01-06T08:38:35;4.80;99.90
25640;DHT22;13497;48.322;16.204;2024-01-06T08:41:01;4.80;99.90
25640;DHT22;13497;48.322;16.204;2024-01-06T08:43:27;4.90;99.90
25640;DHT22;13497;48.322;16.204;2024-01-06T08:45:53;4.90;99.90
25640;DHT22;13497;48.322;16.204;2024-01-06T08:48:18;4.80;99.90
25640;DHT22;13497;48.322;16.204;2024-01-06T08:50:44;4.80;99.90
25640;DHT22;13497;48.322;16.204;2024-01-06T08:53:13;4.90;99.90
25640;DHT22;13497;48.322;16.204;2024-01-06T08:55:39;5.00;99.90
25640;DHT22;13497;48.322;16.204;2024-01-06T08:58:04;4.90;99.90
25640;DHT22;13497;48.322;16.204;2024-01-06T09:00:31;4.90;99.90
25640;DHT22;13497;48.322;16.204;2024-01-06T09:02:56;5.00;99.90
25640;DHT22;13497;48.322;16.204;2024-01-06T09:05:22;5.00;99.90
25640;DHT22;13497;48.322;16.204;2024-01-06T09:07:48;5.00;99.90
25640;DHT22;13497;48.322;16.204;2024-01-06T09:10:17;5.00;99.90
25640;DHT22;13497;48.322;16.204;2024-01-06T09:12:42;5.00;99.90
25640;DHT22;13497;48.322;16.204;2024-01-06T09:15:08;5.10;99.90
25640;DHT22;13497;48.322;16.204;2024-01-06T09:17:34;5.10;99.90
25640;DHT22;13497;48.322;16.204;2024-01-06T09:20:00;5.10;99.90
25640;DHT22;13497;48.322;16.204;2024-01-06T09:22:26;5.10;99.90
25640;DHT22;13497;48.322;16.204;2024-01-06T09:24:52;5.10;99.90
25640;DHT22;13497;48.322;16.204;2024-01-06T09:27:19;5.10;99.90
25640;DHT22;13497;48.322;16.204;2024-01-06T09:29:44;5.10;99.90
25640;DHT22;13497;48.322;16.204;2024-01-06T09:32:10;5.20;99.90
25640;DHT22;13497;48.322;16.204;2024-01-06T09:34:36;5.10;99.90
25640;DHT22;13497;48.322;16.204;2024-01-06T09:37:02;5.10;99.90
25640;DHT22;13497;48.322;16.204;2024-01-06T09:39:28;5.20;99.90
25640;DHT22;13497;48.322;16.204;2024-01-06T09:41:56;5.20;99.90
25640;DHT22;13497;48.322;16.204;2024-01-06T09:44:22;5.20;99.90
25640;DHT22;13497;48.322;16.204;2024-01-06T09:46:47;5.20;99.90
25640;DHT22;13497;48.322;16.204;2024-01-06T09:49:14;5.20;99.90
25640;DHT22;13497;48.322;16.204;2024-01-06T09:51:41;5.20;99.90
25640;DHT22;13497;48.322;16.204;2024-01-06T09:54:12;5.10;99.90
25640;DHT22;13497;48.322;16.204;2024-01-06T09:56:39;5.20;99.90
25640;DHT22;13497;48.322;16.204;2024-01-06T09:59:05;5.20;99.90
25640;DHT22;13497;48.322;16.204;2024-01-06T10:01:31;5.20;99.90
25640;DHT22;13497;48.322;16.204;2024-01-06T10:03:56;5.20;99.90
25640;DHT22;13497;48.322;16.204;2024-01-06T10:06:22;5.20;99.90
25640;DHT22;13497;48.322;16.204;2024-01-06T10:08:52;5.20;99.90
25640;DHT22;13497;48.322;16.204;2024-01-06T10:11:18;5.20;99.90
25640;DHT22;13497;48.322;16.204;2024-01-06T10:13:48;5.30;99.90
25640;DHT22;13497;48.322;16.204;2024-01-06T10:16:15;5.40;99.90
25640;DHT22;13497;48.322;16.204;2024-01-06T10:18:40;5.40;99.90
25640;DHT22;13497;48.322;16.204;2024-01-06T10:21:06;5.40;99.90
25640;DHT22;13497;48.322;16.204;2024-01-06T10:23:33;5.40;99.90
25640;DHT22;13497;48.322;16.204;2024-01-06T10:25:59;5.40;99.90
25640;DHT22;13497;48.322;16.204;2024-01-06T10:28:25;5.40;99.90
25640;DHT22;13497;48.322;16.204;2024-01-06T10:30:55;5.30;99.90
25640;DHT22;13497;48.322;16.204;2024-01-06T10:33:22;5.40;99.90
25640;DHT22;13497;48.322;16.204;2024-01-06T10:35:52;5.30;99.90
25640;DHT22;13497;48.322;16.204;2024-01-06T10:38:18;5.40;99.90
25640;DHT22;13497;48.322;16.204;2024-01-06T10:41:02;5.40;99.90
25640;DHT22;13497;48.322;16.204;2024-01-06T10:43:33;5.50;99.90
25640;DHT22;13497;48.322;16.204;2024-01-06T10:46:07;5.50;99.90
25640;DHT22;13497;48.322;16.204;2024-01-06T10:48:37;5.40;99.90
25640;DHT22;13497;48.322;16.204;2024-01-06T10:51:10;5.40;99.90
25640;DHT22;13497;48.322;16.204;2024-01-06T10:53:37;5.50;99.90
25640;DHT22;13497;48.322;16.204;2024-01-06T10:56:05;5.40;99.90
25640;DHT22;13497;48.322;16.204;2024-01-06T10:58:36;5.40;99.90
25640;DHT22;13497;48.322;16.204;2024-01-06T11:01:08;5.40;99.90
25640;DHT22;13497;48.322;16.204;2024-01-06T11:03:36;5.40;99.90
25640;DHT22;13497;48.322;16.204;2024-01-06T11:06:02;5.40;99.90
25640;DHT22;13497;48.322;16.204;2024-01-06T11:08:29;5.30;99.90
25640;DHT22;13497;48.322;16.204;2024-01-06T11:10:56;5.20;99.90
25640;DHT22;13497;48.322;16.204;2024-01-06T11:13:23;5.10;99.90
25640;DHT22;13497;48.322;16.204;2024-01-06T11:15:50;5.20;99.90
25640;DHT22;13497;48.322;16.204;2024-01-06T11:18:31;5.20;99.90
25640;DHT22;13497;48.322;16.204;2024-01-06T11:21:15;5.20;99.90
25640;DHT22;13497;48.322;16.204;2024-01-06T11:26:32;5.20;99.90
25640;DHT22;13497;48.322;16.204;2024-01-06T11:29:00;5.20;99.90
25640;DHT22;13497;48.322;16.204;2024-01-06T11:31:32;5.20;99.90
25640;DHT22;13497;48.322;16.204;2024-01-06T11:34:21;5.20;99.90
25640;DHT22;13497;48.322;16.204;2024-01-06T11:36:50;5.20;99.90
25640;DHT22;13497;48.322;16.204;2024-01-06T11:39:40;5.10;99.90
25640;DHT22;13497;48.322;16.204;2024-01-06T11:42:09;5.00;99.90
25640;DHT22;13497;48.322;16.204;2024-01-06T11:44:44;5.00;99.90
25640;DHT22;13497;48.322;16.204;2024-01-06T11:47:11;5.00;99.90
25640;DHT22;13497;48.322;16.204;2024-01-06T11:49:38;5.00;99.90
25640;DHT22;13497;48.322;16.204;2024-01-06T11:52:04;5.00;99.90
25640;DHT22;13497;48.322;16.204;2024-01-06T11:54:30;5.10;99.90
25640;DHT22;13497;48.322;16.204;2024-01-06T11:56:56;5.10;99.90
25640;DHT22;13497;48.322;16.204;2024-01-06T11:59:23;5.10;99.90
25640;DHT22;13497;48.322;16.204;2024-01-06T12:01:48;5.20;99.90
25640;DHT22;13497;48.322;16.204;2024-01-06T12:04:14;5.10;99.90
25640;DHT22;13497;48.322;16.204;2024-01-06T12:06:41;5.10;99.90
25640;DHT22;13497;48.322;16.204;2024-01-06T12:09:08;5.00;99.90
25640;DHT22;13497;48.322;16.204;2024-01-06T12:11:34;5.00;99.90
25640;DHT22;13497;48.322;16.204;2024-01-06T12:14:00;5.00;99.90
25640;DHT22;13497;48.322;16.204;2024-01-06T12:16:26;5.00;99.90
25640;DHT22;13497;48.322;16.204;2024-01-06T12:18:56;5.00;99.90
25640;DHT22;13497;48.322;16.204;2024-01-06T12:21:29;4.90;99.90
25640;DHT22;13497;48.322;16.204;2024-01-06T12:24:16;5.00;99.90
25640;DHT22;13497;48.322;16.204;2024-01-06T12:26:44;4.90;99.90
25640;DHT22;13497;48.322;16.204;2024-01-06T12:29:10;4.90;99.90
25640;DHT22;13497;48.322;16.204;2024-01-06T12:31:38;4.90;99.90
25640;DHT22;13497;48.322;16.204;2024-01-06T12:34:04;5.00;99.90
25640;DHT22;13497;48.322;16.204;2024-01-06T12:36:30;5.10;99.90
25640;DHT22;13497;48.322;16.204;2024-01-06T12:38:58;5.00;99.90
25640;DHT22;13497;48.322;16.204;2024-01-06T12:41:24;5.00;99.90
25640;DHT22;13497;48.322;16.204;2024-01-06T12:43:49;5.10;99.90
25640;DHT22;13497;48.322;16.204;2024-01-06T12:46:15;5.00;99.90
25640;DHT22;13497;48.322;16.204;2024-01-06T12:48:41;5.00;99.90
25640;DHT22;13497;48.322;16.204;2024-01-06T12:51:07;5.00;99.90
25640;DHT22;13497;48.322;16.204;2024-01-06T12:53:32;5.00;99.90
25640;DHT22;13497;48.322;16.204;2024-01-06T12:55:58;5.00;99.90
25640;DHT22;13497;48.322;16.204;2024-01-06T12:58:24;5.10;99.90
25640;DHT22;13497;48.322;16.204;2024-01-06T13:00:49;5.10;99.90
25640;DHT22;13497;48.322;16.204;2024-01-06T13:03:15;5.10;99.90
25640;DHT22;13497;48.322;16.204;2024-01-06T13:05:41;5.10;99.90
25640;DHT22;13497;48.322;16.204;2024-01-06T13:08:06;5.10;99.90
25640;DHT22;13497;48.322;16.204;2024-01-06T13:10:32;5.00;99.90
25640;DHT22;13497;48.322;16.204;2024-01-06T13:12:59;5.00;99.90
25640;DHT22;13497;48.322;16.204;2024-01-06T13:15:29;5.00;99.90
25640;DHT22;13497;48.322;16.204;2024-01-06T13:17:54;5.00;99.90
25640;DHT22;13497;48.322;16.204;2024-01-06T13:20:20;5.00;99.90
25640;DHT22;13497;48.322;16.204;2024-01-06T13:22:46;5.10;99.90
25640;DHT22;13497;48.322;16.204;2024-01-06T13:25:11;5.20;99.90
25640;DHT22;13497;48.322;16.204;2024-01-06T13:27:37;5.20;99.90
25640;DHT22;13497;48.322;16.204;2024-01-06T13:30:04;5.20;99.90
25640;DHT22;13497;48.322;16.204;2024-01-06T13:32:30;5.10;99.90
25640;DHT22;13497;48.322;16.204;2024-01-06T13:34:56;5.00;99.90
25640;DHT22;13497;48.322;16.204;2024-01-06T13:37:31;5.00;99.90
25640;DHT22;13497;48.322;16.204;2024-01-06T13:39:56;5.10;99.90
25640;DHT22;13497;48.322;16.204;2024-01-06T13:42:22;5.00;99.90
25640;DHT22;13497;48.322;16.204;2024-01-06T13:44:48;5.00;99.90
25640;DHT22;13497;48.322;16.204;2024-01-06T13:47:14;5.00;99.90
25640;DHT22;13497;48.322;16.204;2024-01-06T13:49:40;5.00;99.90
25640;DHT22;13497;48.322;16.204;2024-01-06T13:52:07;5.10;99.90
25640;DHT22;13497;48.322;16.204;2024-01-06T13:54:35;5.10;99.90
25640;DHT22;13497;48.322;16.204;2024-01-06T13:57:01;5.10;99.90
25640;DHT22;13497;48.322;16.204;2024-01-06T13:59:27;5.00;99.90
25640;DHT22;13497;48.322;16.204;2024-01-06T14:01:53;4.90;99.90
25640;DHT22;13497;48.322;16.204;2024-01-06T14:04:19;5.00;99.90
25640;DHT22;13497;48.322;16.204;2024-01-06T14:06:45;5.00;99.90
25640;DHT22;13497;48.322;16.204;2024-01-06T14:09:13;5.00;99.90
25640;DHT22;13497;48.322;16.204;2024-01-06T14:11:39;5.10;99.90
25640;DHT22;13497;48.322;16.204;2024-01-06T14:14:05;5.10;99.90
25640;DHT22;13497;48.322;16.204;2024-01-06T14:16:31;5.20;99.90
25640;DHT22;13497;48.322;16.204;2024-01-06T14:18:56;5.20;99.90
25640;DHT22;13497;48.322;16.204;2024-01-06T14:21:23;5.20;99.90
25640;DHT22;13497;48.322;16.204;2024-01-06T14:23:49;5.20;99.90
25640;DHT22;13497;48.322;16.204;2024-01-06T14:26:18;5.10;99.90
25640;DHT22;13497;48.322;16.204;2024-01-06T14:28:46;5.10;99.90
25640;DHT22;13497;48.322;16.204;2024-01-06T14:31:11;5.10;99.90
25640;DHT22;13497;48.322;16.204;2024-01-06T14:33:37;5.10;99.90
25640;DHT22;13497;48.322;16.204;2024-01-06T14:36:03;5.00;99.90
25640;DHT22;13497;48.322;16.204;2024-01-06T14:38:29;5.00;99.90
25640;DHT22;13497;48.322;16.204;2024-01-06T14:40:55;5.00;99.90
25640;DHT22;13497;48.322;16.204;2024-01-06T14:43:20;5.00;99.90
25640;DHT22;13497;48.322;16.204;2024-01-06T14:45:47;5.00;99.90
25640;DHT22;13497;48.322;16.204;2024-01-06T14:48:12;5.00;99.90
25640;DHT22;13497;48.322;16.204;2024-01-06T14:50:38;5.10;99.90
25640;DHT22;13497;48.322;16.204;2024-01-06T14:53:04;5.10;99.90
25640;DHT22;13497;48.322;16.204;2024-01-06T14:55:30;5.10;99.90
25640;DHT22;13497;48.322;16.204;2024-01-06T14:57:56;5.10;99.90
25640;DHT22;13497;48.322;16.204;2024-01-06T15:00:21;5.20;99.90
25640;DHT22;13497;48.322;16.204;2024-01-06T15:02:47;5.20;99.90
25640;DHT22;13497;48.322;16.204;2024-01-06T15:05:13;5.20;99.90
25640;DHT22;13497;48.322;16.204;2024-01-06T15:07:39;5.20;99.90
25640;DHT22;13497;48.322;16.204;2024-01-06T15:10:05;5.10;99.90
25640;DHT22;13497;48.322;16.204;2024-01-06T15:12:31;5.20;99.90
25640;DHT22;13497;48.322;16.204;2024-01-06T15:14:57;5.10;99.90
25640;DHT22;13497;48.322;16.204;2024-01-06T15:17:24;5.20;99.90
25640;DHT22;13497;48.322;16.204;2024-01-06T15:19:49;5.20;99.90
25640;DHT22;13497;48.322;16.204;2024-01-06T15:22:16;5.20;99.90
25640;DHT22;13497;48.322;16.204;2024-01-06T15:24:42;5.20;99.90
25640;DHT22;13497;48.322;16.204;2024-01-06T15:27:13;5.20;99.90
25640;DHT22;13497;48.322;16.204;2024-01-06T15:29:38;5.20;99.90